Time;durP1;ratioP1;P1;durP2;ratioP2;P2;SDS_P1;SDS_P2;PMS_P1;PMS_P2;Temp;Humidity;BMP_temperature;BMP_pressure;BME280_temperature;BME280_humidity;BME280_pressure;Samples;Min_cycle;Max_cycle;Signal;HPM_P1;HPM_P2
2022/09/17 00:00:40;;;;;;;18.75;3.53;;;9.70;99.90;;;;;;5026831;28;20032;-74
2022/09/17 00:03:08;;;;;;;21.95;3.70;;;9.70;99.90;;;;;;5027799;28;20039;-73
2022/09/17 00:05:36;;;;;;;18.08;3.13;;;9.60;99.90;;;;;;5027181;28;20032;-74
2022/09/17 00:08:04;;;;;;;19.02;3.25;;;9.60;99.90;;;;;;5039327;28;20069;-74
2022/09/17 00:10:30;;;;;;;18.40;4.40;;;9.50;99.90;;;;;;5038544;28;20025;-74
2022/09/17 00:12:57;;;;;;;21.73;3.90;;;9.50;99.90;;;;;;5045252;28;20029;-74
2022/09/17 00:15:22;;;;;;;19.15;4.20;;;9.50;99.90;;;;;;5039818;28;20516;-74
2022/09/17 00:17:56;;;;;;;20.98;3.35;;;9.40;99.90;;;;;;5009653;28;20037;-74
2022/09/17 00:20:25;;;;;;;17.55;3.45;;;9.40;99.90;;;;;;5041059;28;20114;-75
2022/09/17 00:22:51;;;;;;;17.05;3.47;;;9.30;99.90;;;;;;5023817;28;20072;-74
2022/09/17 00:25:18;;;;;;;16.55;3.42;;;9.20;99.90;;;;;;5057336;28;20040;-74
2022/09/17 00:27:44;;;;;;;19.15;4.10;;;9.60;99.90;;;;;;5038293;28;20034;-75
2022/09/17 00:30:11;;;;;;;20.65;4.00;;;9.20;99.90;;;;;;5044340;28;20248;-74
2022/09/17 00:32:37;;;;;;;19.63;3.80;;;9.20;99.90;;;;;;5022678;28;20041;-74
2022/09/17 00:35:03;;;;;;;14.65;3.22;;;9.10;99.90;;;;;;5041320;28;20120;-74
2022/09/17 00:37:29;;;;;;;22.13;3.13;;;9.10;99.90;;;;;;5018567;28;20053;-74
2022/09/17 00:39:54;;;;;;;23.13;3.58;;;9.00;99.90;;;;;;5028727;28;20032;-74
2022/09/17 00:42:24;;;;;;;17.98;3.63;;;9.00;99.90;;;;;;5029792;28;20090;-75
2022/09/17 00:44:51;;;;;;;21.08;3.45;;;9.00;99.90;;;;;;5023588;28;20053;-74
2022/09/17 00:47:25;;;;;;;20.52;3.40;;;8.90;99.90;;;;;;5037201;28;20045;-74
2022/09/17 00:50:00;;;;;;;17.63;2.83;;;8.90;99.90;;;;;;5026664;28;20402;-74
2022/09/17 00:52:31;;;;;;;14.02;3.28;;;8.90;99.90;;;;;;5024489;28;20116;-73
2022/09/17 00:55:04;;;;;;;9.37;2.80;;;8.90;99.90;;;;;;5044993;28;20036;-75
2022/09/17 00:57:30;;;;;;;15.68;3.08;;;8.80;99.90;;;;;;5024906;28;20029;-74
2022/09/17 00:59:56;;;;;;;21.75;3.40;;;8.80;99.90;;;;;;5038619;28;20041;-74
2022/09/17 01:02:23;;;;;;;19.77;3.33;;;8.70;99.90;;;;;;5024547;28;20041;-74
2022/09/17 01:04:50;;;;;;;17.45;3.45;;;8.70;99.90;;;;;;5024123;28;20107;-72
2022/09/17 01:07:37;;;;;;;22.05;3.47;;;8.70;99.90;;;;;;5021267;28;20483;-74
2022/09/17 01:10:18;;;;;;;21.85;3.33;;;8.70;99.90;;;;;;5021842;28;20136;-73
2022/09/17 01:12:56;;;;;;;15.98;3.22;;;8.70;99.90;;;;;;5044612;28;20036;-73
2022/09/17 01:15:45;;;;;;;13.70;3.47;;;8.70;99.90;;;;;;5030238;28;20052;-72
2022/09/17 01:18:48;;;;;;;14.32;3.45;;;8.70;99.90;;;;;;5024899;28;20037;-73
2022/09/17 01:21:33;;;;;;;;;;;8.60;99.90;;;;;;5024621;28;20486;-74
2022/09/17 01:24:36;;;;;;;16.75;3.40;;;8.60;99.90;;;;;;5039910;28;20019;-73
2022/09/17 01:27:02;;;;;;;15.18;3.50;;;8.60;99.90;;;;;;5033880;28;20037;-74
2022/09/17 01:29:40;;;;;;;12.63;3.00;;;8.60;99.90;;;;;;5017583;28;20108;-72
2022/09/17 01:32:19;;;;;;;21.70;3.50;;;8.60;99.90;;;;;;5023626;28;20302;-72
2022/09/17 01:35:05;;;;;;;11.57;2.83;;;8.60;99.90;;;;;;5024057;28;20392;-74
2022/09/17 01:38:19;;;;;;;13.57;2.90;;;8.60;99.90;;;;;;5019950;28;20049;-74
2022/09/17 01:40:49;;;;;;;19.48;2.95;;;8.60;99.90;;;;;;5022422;28;20061;-73
2022/09/17 01:43:28;;;;;;;14.75;3.10;;;8.60;99.90;;;;;;5036887;28;20051;-73
2022/09/17 01:46:26;;;;;;;16.88;2.75;;;8.60;99.90;;;;;;5021866;28;20041;-73
2022/09/17 01:48:59;;;;;;;12.77;2.65;;;8.60;99.90;;;;;;5041295;28;20033;-73
2022/09/17 01:51:28;;;;;;;26.05;3.60;;;8.60;99.90;;;;;;5039890;28;20115;-73
2022/09/17 01:54:01;;;;;;;17.63;3.45;;;8.60;99.90;;;;;;5043645;28;20045;-74
2022/09/17 01:56:47;;;;;;;24.85;3.28;;;8.60;99.90;;;;;;5043381;28;20196;-74
2022/09/17 01:59:18;;;;;;;15.25;3.38;;;8.50;99.90;;;;;;5039395;28;20037;-74
2022/09/17 02:01:47;;;;;;;16.50;3.30;;;8.50;99.90;;;;;;5041730;28;20041;-73
2022/09/17 02:04:24;;;;;;;18.48;3.00;;;8.50;99.90;;;;;;5028037;28;20518;-74
2022/09/17 02:06:59;;;;;;;22.00;3.40;;;8.50;99.90;;;;;;5019403;28;20048;-74
2022/09/17 02:09:49;;;;;;;17.52;3.42;;;8.50;99.90;;;;;;5037208;28;20056;-74
2022/09/17 02:12:23;;;;;;;14.73;3.45;;;8.50;99.90;;;;;;5044763;28;20052;-74
2022/09/17 02:14:52;;;;;;;16.15;2.53;;;8.50;99.90;;;;;;5039923;28;20029;-72
2022/09/17 02:17:29;;;;;;;15.30;2.92;;;8.50;99.90;;;;;;5025366;28;20587;-73
2022/09/17 02:19:55;;;;;;;18.42;3.65;;;8.50;99.90;;;;;;5024483;28;22008;-74
2022/09/17 02:22:56;;;;;;;11.35;2.85;;;8.50;99.90;;;;;;5042474;28;20052;-73
2022/09/17 02:25:30;;;;;;;13.05;2.80;;;8.50;99.90;;;;;;5039902;28;20115;-74
2022/09/17 02:28:01;;;;;;;15.88;2.90;;;8.50;99.90;;;;;;5020179;28;20160;-73
2022/09/17 02:30:27;;;;;;;12.35;2.65;;;8.40;99.90;;;;;;5025216;28;20123;-73
2022/09/17 02:32:54;;;;;;;14.40;3.35;;;8.40;99.90;;;;;;5039655;28;20521;-74
2022/09/17 02:35:20;;;;;;;13.68;2.85;;;8.40;99.90;;;;;;5041023;28;20037;-75
2022/09/17 02:37:46;;;;;;;18.60;2.97;;;8.30;99.90;;;;;;5026651;28;20080;-75
2022/09/17 02:40:16;;;;;;;16.48;3.50;;;8.40;99.90;;;;;;5020773;28;20045;-74
2022/09/17 02:43:08;;;;;;;21.42;3.65;;;8.30;99.90;;;;;;5025588;28;20832;-73
2022/09/17 02:45:51;;;;;;;15.87;2.80;;;8.30;99.90;;;;;;5027280;28;20056;-73
2022/09/17 02:48:20;;;;;;;18.88;3.90;;;8.30;99.90;;;;;;5023447;28;20126;-74
2022/09/17 02:51:18;;;;;;;11.30;2.78;;;8.30;99.90;;;;;;5058954;28;20029;-74
2022/09/17 02:54:02;;;;;;;24.85;4.05;;;8.30;99.90;;;;;;5043927;28;20041;-73
2022/09/17 02:56:46;;;;;;;18.20;3.47;;;8.30;99.90;;;;;;5046912;28;20037;-74
2022/09/17 02:59:18;;;;;;;10.98;2.85;;;8.30;99.90;;;;;;5026627;28;20036;-75
2022/09/17 03:01:51;;;;;;;17.75;2.97;;;8.30;99.90;;;;;;5043589;28;20033;-74
2022/09/17 03:04:20;;;;;;;12.90;2.80;;;8.30;99.90;;;;;;5021411;28;20047;-73
2022/09/17 03:06:46;;;;;;;13.60;3.10;;;8.30;99.90;;;;;;5040130;28;20037;-74
2022/09/17 03:09:13;;;;;;;19.98;3.92;;;8.30;99.90;;;;;;5042748;28;20040;-71
2022/09/17 03:11:40;;;;;;;10.38;2.80;;;8.30;99.90;;;;;;5048506;28;20065;-74
2022/09/17 03:14:05;;;;;;;19.25;2.90;;;8.30;99.90;;;;;;5039253;28;20045;-73
2022/09/17 03:16:31;;;;;;;15.63;4.00;;;8.40;99.90;;;;;;5021637;28;20040;-74
2022/09/17 03:18:57;;;;;;;10.73;2.70;;;8.40;99.90;;;;;;5058159;28;20036;-73
2022/09/17 03:21:23;;;;;;;17.70;3.28;;;8.40;99.90;;;;;;5003144;28;20041;-74
2022/09/17 03:23:48;;;;;;;16.17;3.28;;;8.50;99.90;;;;;;5028599;28;20048;-73
2022/09/17 03:26:14;;;;;;;17.63;2.90;;;8.50;99.90;;;;;;5029489;28;20494;-74
2022/09/17 03:28:40;;;;;;;11.30;2.53;;;8.60;99.90;;;;;;5035529;28;20033;-74
2022/09/17 03:31:05;;;;;;;13.52;3.70;;;8.60;99.90;;;;;;5035966;28;20036;-74
2022/09/17 03:33:32;;;;;;;15.90;2.75;;;8.60;99.90;;;;;;5017434;28;20036;-74
2022/09/17 03:35:57;;;;;;;15.75;2.75;;;8.50;99.90;;;;;;5035670;28;20036;-75
2022/09/17 03:38:26;;;;;;;16.65;2.60;;;8.60;99.90;;;;;;5034140;28;20557;-75
2022/09/17 03:41:00;;;;;;;11.80;2.88;;;8.50;99.90;;;;;;5052038;28;20033;-74
2022/09/17 03:43:26;;;;;;;10.23;2.60;;;8.50;99.90;;;;;;5048932;28;20490;-72
2022/09/17 03:45:52;;;;;;;10.77;2.63;;;8.50;99.90;;;;;;5034476;28;20037;-73
2022/09/17 03:48:18;;;;;;;16.85;3.35;;;8.50;99.90;;;;;;5049071;28;20095;-74
2022/09/17 03:50:44;;;;;;;17.55;3.38;;;8.50;99.90;;;;;;5031321;28;20053;-74
2022/09/17 03:53:10;;;;;;;15.55;3.42;;;8.50;99.90;;;;;;5040654;28;20038;-74
2022/09/17 03:55:39;;;;;;;13.98;3.47;;;8.50;99.90;;;;;;5049263;28;20085;-74
2022/09/17 03:58:05;;;;;;;15.82;2.70;;;8.50;99.90;;;;;;5054409;28;20100;-72
2022/09/17 04:00:31;;;;;;;15.18;3.00;;;8.50;99.90;;;;;;5067433;28;20057;-73
2022/09/17 04:02:57;;;;;;;12.13;2.50;;;8.50;99.90;;;;;;5055602;28;20033;-74
2022/09/17 04:05:23;;;;;;;15.65;2.65;;;8.50;99.90;;;;;;5069066;28;20063;-74
2022/09/17 04:07:49;;;;;;;12.13;2.75;;;8.50;99.90;;;;;;5052483;28;20033;-74
2022/09/17 04:10:15;;;;;;;13.45;2.65;;;8.50;99.90;;;;;;5027360;28;20120;-74
2022/09/17 04:12:40;;;;;;;8.85;2.50;;;9.10;99.90;;;;;;5042488;28;20091;-75
2022/09/17 04:15:07;;;;;;;10.73;2.35;;;8.50;99.90;;;;;;5028005;28;20065;-74
2022/09/17 04:17:33;;;;;;;12.75;2.60;;;8.50;99.90;;;;;;5042611;28;20041;-73
2022/09/17 04:19:59;;;;;;;14.73;2.75;;;8.60;99.90;;;;;;5030599;28;20062;-74
2022/09/17 04:22:25;;;;;;;12.45;2.63;;;8.70;99.90;;;;;;5043405;28;20053;-74
2022/09/17 04:24:51;;;;;;;7.28;2.15;;;8.80;99.90;;;;;;5061059;28;20041;-74
2022/09/17 04:27:17;;;;;;;10.60;2.75;;;8.80;99.90;;;;;;5026422;28;20045;-74
2022/09/17 04:29:43;;;;;;;10.93;2.28;;;8.70;99.90;;;;;;5043047;28;20044;-74
2022/09/17 04:32:08;;;;;;;14.52;2.83;;;8.70;99.90;;;;;;5029297;28;20438;-74
2022/09/17 04:34:34;;;;;;;11.23;2.45;;;8.70;99.90;;;;;;5022350;28;20044;-74
2022/09/17 04:37:00;;;;;;;16.52;2.83;;;8.70;99.90;;;;;;5024439;28;20084;-73
2022/09/17 04:39:26;;;;;;;13.48;2.40;;;8.60;99.90;;;;;;5041272;28;20088;-74
2022/09/17 04:41:52;;;;;;;10.50;2.63;;;8.60;99.90;;;;;;5025517;28;20334;-74
2022/09/17 04:44:17;;;;;;;10.05;2.20;;;8.50;99.90;;;;;;5014118;28;20056;-74
2022/09/17 04:46:43;;;;;;;7.45;2.30;;;8.50;99.90;;;;;;5008912;28;20495;-74
2022/09/17 04:49:10;;;;;;;9.40;2.40;;;8.50;99.90;;;;;;5041536;28;20087;-73
2022/09/17 04:51:35;;;;;;;12.65;2.65;;;8.40;99.90;;;;;;5026240;28;20092;-74
2022/09/17 04:54:01;;;;;;;7.75;2.22;;;8.40;99.90;;;;;;5027516;28;20113;-74
2022/09/17 04:56:27;;;;;;;6.10;2.05;;;8.40;99.90;;;;;;5024922;28;20033;-73
2022/09/17 04:58:53;;;;;;;13.75;2.72;;;8.30;99.90;;;;;;5038808;28;20475;-75
2022/09/17 05:01:19;;;;;;;11.63;2.58;;;8.30;99.90;;;;;;5019912;28;20041;-74
2022/09/17 05:03:45;;;;;;;10.90;2.33;;;8.30;99.90;;;;;;5020407;28;20617;-73
2022/09/17 05:06:11;;;;;;;11.85;2.05;;;8.20;99.90;;;;;;5041097;28;20060;-74
2022/09/17 05:08:36;;;;;;;12.23;2.15;;;8.20;99.90;;;;;;5041165;28;20337;-74
2022/09/17 05:11:02;;;;;;;13.50;2.13;;;8.20;99.90;;;;;;5041172;28;20082;-73
2022/09/17 05:13:28;;;;;;;19.02;2.50;;;8.20;99.90;;;;;;5016162;28;20068;-74
2022/09/17 05:15:57;;;;;;;11.75;1.77;;;8.20;99.90;;;;;;5023779;28;20072;-74
2022/09/17 05:18:23;;;;;;;8.27;1.77;;;8.10;99.90;;;;;;5022291;28;20037;-72
2022/09/17 05:20:49;;;;;;;10.07;2.00;;;8.10;99.90;;;;;;5021262;28;20048;-73
2022/09/17 05:23:19;;;;;;;13.18;2.20;;;8.10;99.90;;;;;;5021521;28;20121;-73
2022/09/17 05:25:44;;;;;;;11.82;2.03;;;8.10;99.90;;;;;;5021486;28;20037;-73
2022/09/17 05:28:10;;;;;;;7.97;2.20;;;8.10;99.90;;;;;;5008424;28;20174;-73
2022/09/17 05:30:39;;;;;;;9.45;2.22;;;8.10;99.90;;;;;;5019622;28;20052;-74
2022/09/17 05:33:06;;;;;;;12.23;2.17;;;8.10;99.90;;;;;;5027606;28;20045;-73
2022/09/17 05:35:33;;;;;;;11.68;2.30;;;8.10;99.90;;;;;;5038117;28;20057;-74
2022/09/17 05:38:06;;;;;;;7.95;2.03;;;8.10;99.90;;;;;;5038813;28;20087;-74
2022/09/17 05:40:32;;;;;;;9.50;2.05;;;8.20;99.90;;;;;;5019450;28;20418;-73
2022/09/17 05:43:00;;;;;;;15.95;2.63;;;8.10;99.90;;;;;;5020659;28;20041;-72
2022/09/17 05:45:26;;;;;;;13.32;2.78;;;8.10;99.90;;;;;;5059477;28;20049;-74
2022/09/17 05:47:56;;;;;;;12.77;2.20;;;8.10;99.90;;;;;;5036831;28;20499;-72
2022/09/17 05:50:22;;;;;;;11.13;2.15;;;8.10;99.90;;;;;;5027990;28;20116;-73
2022/09/17 05:52:49;;;;;;;10.48;2.17;;;8.20;99.90;;;;;;5012216;28;20029;-73
2022/09/17 05:55:15;;;;;;;10.80;2.42;;;8.20;99.90;;;;;;5012532;28;20058;-73
2022/09/17 05:57:41;;;;;;;10.02;2.22;;;8.20;99.90;;;;;;5005831;28;20331;-73
2022/09/17 06:00:07;;;;;;;9.82;2.15;;;8.20;99.90;;;;;;5026962;28;20045;-73
2022/09/17 06:02:39;;;;;;;10.35;2.35;;;8.30;99.90;;;;;;5021019;28;20518;-74
2022/09/17 06:05:05;;;;;;;15.10;2.73;;;8.30;99.90;;;;;;5008551;28;20130;-74
2022/09/17 06:07:30;;;;;;;11.75;2.70;;;8.40;99.90;;;;;;5026714;28;20334;-74
2022/09/17 06:09:56;;;;;;;18.05;2.67;;;8.50;99.90;;;;;;5007493;28;20041;-75
2022/09/17 06:12:22;;;;;;;11.70;2.38;;;8.60;99.90;;;;;;5041621;28;20073;-73
2022/09/17 06:14:48;;;;;;;14.85;2.70;;;8.70;99.90;;;;;;5041749;28;20041;-74
2022/09/17 06:17:14;;;;;;;13.25;2.22;;;8.80;99.90;;;;;;5012424;28;20489;-73
2022/09/17 06:19:39;;;;;;;7.68;2.10;;;8.90;99.90;;;;;;5030163;28;20041;-73
2022/09/17 06:22:05;;;;;;;13.88;2.78;;;9.00;99.90;;;;;;5012410;28;20098;-74
2022/09/17 06:24:31;;;;;;;14.95;2.85;;;9.20;99.90;;;;;;5024013;28;20045;-74
2022/09/17 06:26:57;;;;;;;10.93;2.10;;;9.20;99.90;;;;;;5039931;28;20038;-75
2022/09/17 06:29:23;;;;;;;10.93;2.25;;;9.30;99.90;;;;;;5027394;28;20032;-74
2022/09/17 06:31:50;;;;;;;9.00;2.35;;;9.30;99.90;;;;;;5036315;28;20041;-73
2022/09/17 06:34:16;;;;;;;10.23;2.15;;;9.30;99.90;;;;;;5040812;28;20037;-72
2022/09/17 06:36:42;;;;;;;13.68;2.13;;;9.20;99.90;;;;;;5039248;28;20080;-73
2022/09/17 06:39:10;;;;;;;8.10;1.80;;;9.20;99.90;;;;;;5023651;28;20069;-73
2022/09/17 06:41:42;;;;;;;8.50;1.58;;;9.10;99.90;;;;;;5041366;28;20115;-73
2022/09/17 06:44:08;;;;;;;10.10;2.42;;;9.10;99.90;;;;;;5025268;28;20041;-72
2022/09/17 06:46:34;;;;;;;7.15;2.22;;;9.10;99.90;;;;;;5025985;28;20040;-72
2022/09/17 06:49:00;;;;;;;6.60;1.80;;;9.10;99.90;;;;;;5038533;28;20033;-72
2022/09/17 06:51:25;;;;;;;6.03;1.88;;;9.00;99.90;;;;;;5019825;28;20529;-72
2022/09/17 06:53:51;;;;;;;6.32;2.08;;;9.00;99.90;;;;;;5027179;28;20120;-72
2022/09/17 06:56:17;;;;;;;8.15;2.22;;;9.00;99.90;;;;;;5021926;28;20689;-72
2022/09/17 06:58:43;;;;;;;4.63;1.50;;;9.00;99.90;;;;;;5008913;28;20045;-72
2022/09/17 07:01:10;;;;;;;8.90;2.03;;;9.00;99.90;;;;;;5037858;28;20037;-72
2022/09/17 07:03:37;;;;;;;11.88;2.38;;;9.00;99.90;;;;;;5039486;28;20062;-71
2022/09/17 07:06:03;;;;;;;10.48;2.08;;;9.00;99.90;;;;;;5038459;28;20122;-72
2022/09/17 07:08:33;;;;;;;4.88;2.17;;;9.00;99.90;;;;;;5039618;28;20037;-72
2022/09/17 07:10:59;;;;;;;12.63;2.05;;;9.00;99.90;;;;;;5032740;28;20073;-72
2022/09/17 07:13:25;;;;;;;8.55;2.22;;;9.00;99.90;;;;;;5040682;28;20091;-73
2022/09/17 07:15:56;;;;;;;10.20;2.05;;;9.00;99.90;;;;;;5040276;28;20036;-73
2022/09/17 07:18:22;;;;;;;4.82;1.80;;;9.00;99.90;;;;;;5041977;28;20454;-73
2022/09/17 07:20:53;;;;;;;8.00;2.08;;;9.10;99.90;;;;;;5040422;28;20037;-72
2022/09/17 07:23:23;;;;;;;14.10;2.60;;;9.20;99.90;;;;;;5038907;28;20973;-72
2022/09/17 07:25:58;;;;;;;9.40;2.67;;;9.20;99.90;;;;;;5028611;28;20060;-74
2022/09/17 07:28:25;;;;;;;9.05;2.72;;;9.30;99.90;;;;;;5047913;28;20526;-72
2022/09/17 07:30:51;;;;;;;9.40;2.30;;;9.40;99.90;;;;;;5029526;28;20037;-72
2022/09/17 07:33:22;;;;;;;8.98;1.80;;;9.50;99.90;;;;;;5027481;28;20426;-73
2022/09/17 07:36:16;;;;;;;8.27;2.08;;;9.50;99.90;;;;;;5041631;28;20044;-73
2022/09/17 07:38:42;;;;;;;6.88;2.20;;;9.60;99.90;;;;;;5045547;28;20095;-74
2022/09/17 07:41:16;;;;;;;12.98;2.17;;;9.80;99.90;;;;;;5027946;28;20029;-74
2022/09/17 07:43:42;;;;;;;11.82;2.05;;;10.00;99.90;;;;;;5044473;28;20129;-73
2022/09/17 07:46:14;;;;;;;12.35;2.00;;;10.10;99.90;;;;;;5023795;28;20052;-72
2022/09/17 07:48:40;;;;;;;8.68;1.88;;;10.20;99.90;;;;;;5052206;28;20052;-73
2022/09/17 07:51:06;;;;;;;12.40;2.13;;;10.40;99.90;;;;;;5030562;28;20044;-72
2022/09/17 07:53:32;;;;;;;5.32;1.55;;;10.60;99.90;;;;;;5032136;28;20039;-73
2022/09/17 07:55:59;;;;;;;10.18;1.80;;;10.80;99.90;;;;;;5050286;28;20033;-71
2022/09/17 07:58:34;;;;;;;9.80;1.90;;;10.70;99.90;;;;;;5034309;28;20029;-73
2022/09/17 08:01:02;;;;;;;8.10;2.03;;;10.60;99.90;;;;;;5033473;28;20041;-71
2022/09/17 08:03:27;;;;;;;13.82;3.05;;;10.50;99.90;;;;;;5049273;28;20037;-73
2022/09/17 08:05:53;;;;;;;10.27;2.05;;;10.50;99.90;;;;;;5033556;28;20040;-71
2022/09/17 08:08:19;;;;;;;8.90;1.92;;;10.50;99.90;;;;;;5049591;28;20071;-72
2022/09/17 08:10:45;;;;;;;9.25;1.92;;;10.60;99.90;;;;;;5050977;28;20037;-71
2022/09/17 08:13:10;;;;;;;10.75;1.90;;;10.80;99.90;;;;;;5017765;28;20053;-72
2022/09/17 08:15:36;;;;;;;8.48;1.60;;;10.90;99.90;;;;;;5038345;28;20046;-72
2022/09/17 08:18:02;;;;;;;8.25;2.05;;;11.10;99.90;;;;;;5019740;28;20490;-73
2022/09/17 08:20:28;;;;;;;8.73;1.80;;;11.20;99.90;;;;;;5048136;28;20307;-72
2022/09/17 08:22:58;;;;;;;8.57;2.00;;;11.30;99.90;;;;;;5016223;28;20087;-71
2022/09/17 08:25:24;;;;;;;7.40;1.70;;;11.50;99.90;;;;;;5047756;28;20090;-71
2022/09/17 08:27:54;;;;;;;8.38;1.60;;;11.60;99.90;;;;;;5032166;28;20464;-72
2022/09/17 08:30:20;;;;;;;8.65;1.70;;;11.80;99.90;;;;;;5049232;28;20050;-71
2022/09/17 08:32:45;;;;;;;9.50;1.88;;;11.90;99.90;;;;;;5031372;28;20505;-73
2022/09/17 08:35:11;;;;;;;5.75;1.35;;;12.10;99.90;;;;;;5045302;28;20042;-71
2022/09/17 08:37:37;;;;;;;4.40;1.17;;;12.10;99.90;;;;;;5049248;28;20563;-70
2022/09/17 08:40:03;;;;;;;3.80;1.10;;;12.30;99.90;;;;;;5035666;28;20044;-72
2022/09/17 08:42:55;;;;;;;6.30;1.30;;;12.30;99.90;;;;;;5051727;28;20063;-73
2022/09/17 08:45:21;;;;;;;6.30;1.33;;;12.40;99.90;;;;;;5051715;28;20136;-71
2022/09/17 08:47:47;;;;;;;4.15;1.20;;;12.50;99.90;;;;;;5051790;28;20757;-71
2022/09/17 08:50:14;;;;;;;5.45;1.25;;;12.60;99.90;;;;;;5028575;28;20079;-73
2022/09/17 08:52:53;;;;;;;7.15;2.00;;;12.40;99.90;;;;;;5067170;28;20030;-68
2022/09/17 08:55:53;;;;;;;4.55;1.30;;;12.10;99.90;;;;;;5072315;28;20048;-73
2022/09/17 08:58:27;;;;;;;6.03;2.10;;;11.80;99.90;;;;;;5064945;28;20090;-71
2022/09/17 09:01:03;;;;;;;5.82;1.67;;;11.40;99.90;;;;;;5062313;28;20041;-72
2022/09/17 09:03:50;;;;;;;5.25;1.27;;;11.10;99.90;;;;;;5063185;28;20056;-70
2022/09/17 09:06:18;;;;;;;5.72;1.40;;;10.90;99.90;;;;;;5043646;28;20044;-70
2022/09/17 09:09:02;;;;;;;4.28;1.25;;;10.90;99.90;;;;;;5029802;28;20033;-71
2022/09/17 09:11:30;;;;;;;5.07;1.20;;;10.90;99.90;;;;;;5044422;28;20052;-72
2022/09/17 09:14:19;;;;;;;7.88;1.48;;;11.10;99.90;;;;;;5043012;28;20037;-71
2022/09/17 09:16:45;;;;;;;7.40;1.67;;;11.30;99.90;;;;;;5041419;28;20076;-72
2022/09/17 09:19:23;;;;;;;6.18;1.60;;;11.50;99.90;;;;;;5041790;28;20179;-71
2022/09/17 09:22:24;;;;;;;3.67;1.08;;;11.70;99.90;;;;;;5040911;28;20045;-74
2022/09/17 09:25:14;;;;;;;4.30;1.33;;;11.80;99.90;;;;;;4970054;28;20516;-73
2022/09/17 09:27:59;;;;;;;6.38;1.30;;;11.90;99.90;;;;;;5035950;28;20049;-74
2022/09/17 09:30:38;;;;;;;5.80;1.10;;;12.10;99.90;;;;;;5044119;28;20037;-73
2022/09/17 09:33:21;;;;;;;7.40;1.10;;;12.10;99.90;;;;;;5044315;28;20034;-74
2022/09/17 09:35:47;;;;;;;6.78;1.42;;;12.20;99.90;;;;;;5039268;28;20491;-74
2022/09/17 09:38:13;;;;;;;3.60;1.23;;;12.20;99.90;;;;;;5027952;28;20178;-74
2022/09/17 09:40:59;;;;;;;7.00;1.73;;;12.20;99.90;;;;;;5028741;28;20061;-74
2022/09/17 09:43:40;;;;;;;6.60;1.42;;;12.10;99.90;;;;;;5043584;28;20037;-74
2022/09/17 09:46:18;;;;;;;5.43;1.48;;;12.10;99.90;;;;;;5027089;28;20048;-73
2022/09/17 09:49:16;;;;;;;2.75;1.10;;;12.00;99.90;;;;;;5026177;28;20037;-74
2022/09/17 09:51:49;;;;;;;6.20;1.52;;;11.80;99.90;;;;;;5038299;28;20045;-72
2022/09/17 09:54:27;;;;;;;6.05;1.35;;;11.70;99.90;;;;;;5022910;28;20064;-72
2022/09/17 09:56:54;;;;;;;7.32;1.75;;;11.80;99.90;;;;;;5026328;28;20071;-73
2022/09/17 09:59:20;;;;;;;7.03;1.52;;;12.00;99.90;;;;;;5019672;28;20041;-72
2022/09/17 10:01:46;;;;;;;7.28;1.50;;;12.00;99.90;;;;;;5026656;28;20498;-73
2022/09/17 10:04:23;;;;;;;5.88;1.65;;;12.00;99.90;;;;;;5038647;28;20120;-73
2022/09/17 10:06:52;;;;;;;8.48;1.70;;;11.90;99.90;;;;;;5043992;28;20124;-73
2022/09/17 10:09:21;;;;;;;3.38;1.13;;;11.70;99.90;;;;;;5042339;28;20052;-72
2022/09/17 10:12:05;;;;;;;5.68;1.90;;;11.50;99.90;;;;;;5041347;28;20051;-74
2022/09/17 10:14:34;;;;;;;7.28;1.85;;;11.60;99.90;;;;;;5044543;28;20394;-73
2022/09/17 10:17:19;;;;;;;6.63;1.50;;;11.80;99.90;;;;;;5023059;28;20136;-74
2022/09/17 10:20:09;;;;;;;4.68;1.58;;;12.00;99.90;;;;;;5026423;28;20241;-73
2022/09/17 10:22:39;;;;;;;3.42;1.02;;;12.00;99.90;;;;;;5041937;28;20094;-73
2022/09/17 10:25:27;;;;;;;8.60;1.83;;;11.80;99.90;;;;;;5026621;28;20045;-74
2022/09/17 10:27:54;;;;;;;4.72;1.40;;;11.70;99.90;;;;;;5040913;28;20072;-73
2022/09/17 10:30:20;;;;;;;9.07;1.77;;;11.60;99.90;;;;;;5021616;28;20044;-74
2022/09/17 10:33:37;;;;;;;7.32;1.60;;;11.50;99.90;;;;;;5043763;28;20128;-73
2022/09/17 10:36:05;;;;;;;6.43;1.35;;;11.40;99.90;;;;;;5035533;28;20049;-73
2022/09/17 10:38:40;;;;;;;8.32;1.63;;;11.60;99.90;;;;;;5022572;28;20064;-73
2022/09/17 10:41:12;;;;;;;11.82;1.77;;;11.90;99.90;;;;;;5025247;28;20033;-75
2022/09/17 10:43:38;;;;;;;5.88;1.77;;;12.20;99.90;;;;;;5038952;28;20033;-73
2022/09/17 10:46:07;;;;;;;7.38;1.80;;;12.60;99.90;;;;;;5023545;28;20068;-73
2022/09/17 10:48:42;;;;;;;8.07;1.75;;;12.80;99.90;;;;;;5040060;28;20036;-74
2022/09/17 10:51:09;;;;;;;7.10;2.00;;;13.10;99.90;;;;;;5055551;28;20151;-74
2022/09/17 10:54:20;;;;;;;5.47;1.65;;;13.40;99.90;;;;;;5040784;28;20041;-74
2022/09/17 10:56:52;;;;;;;9.15;2.08;;;13.60;99.90;;;;;;4965357;28;20073;-74
2022/09/17 10:59:51;;;;;;;5.32;1.52;;;13.70;99.90;;;;;;4968275;28;20046;-75
2022/09/17 11:02:47;;;;;;;5.97;1.60;;;13.90;99.90;;;;;;5017820;28;20101;-74
2022/09/17 11:06:00;;;;;;;4.15;1.00;;;14.00;99.90;;;;;;5031823;28;20083;-74
2022/09/17 11:08:31;;;;;;;;;;;14.20;99.90;;;;;;4989334;28;20052;-73
2022/09/17 11:11:06;;;;;;;6.22;1.05;;;14.40;99.90;;;;;;5045936;28;19975;-74
2022/09/17 11:14:13;;;;;;;5.03;1.27;;;14.20;99.90;;;;;;5028178;28;20036;-74
2022/09/17 11:16:58;;;;;;;9.85;2.03;;;13.80;99.90;;;;;;5050243;28;20064;-75
2022/09/17 11:19:54;;;;;;;7.30;1.60;;;13.30;99.90;;;;;;5049059;28;20123;-74
2022/09/17 11:23:08;;;;;;;5.15;1.50;;;12.80;99.90;;;;;;5035025;28;20110;-74
2022/09/17 11:26:15;;;;;;;10.18;2.00;;;12.40;99.90;;;;;;4984958;28;20055;-74
2022/09/17 11:29:23;;;;;;;5.03;1.73;;;12.20;99.90;;;;;;5025188;28;20124;-74
2022/09/17 11:32:09;;;;;;;8.75;1.55;;;12.10;99.90;;;;;;5028453;28;20130;-74
2022/09/17 11:34:43;;;;;;;6.60;1.52;;;12.10;99.90;;;;;;5046010;28;20045;-74
2022/09/17 11:37:32;;;;;;;6.50;1.35;;;12.00;99.90;;;;;;5038286;28;20191;-73
2022/09/17 11:40:20;;;;;;;7.72;1.67;;;11.90;99.90;;;;;;5044112;28;20398;-74
2022/09/17 11:42:55;;;;;;;7.20;2.00;;;11.80;99.90;;;;;;5028250;28;20030;-74
2022/09/17 11:45:55;;;;;;;7.03;1.40;;;11.60;99.90;;;;;;5044048;28;20056;-74
2022/09/17 11:48:36;;;;;;;5.53;2.20;;;11.50;99.90;;;;;;5027338;28;20042;-71
2022/09/17 11:51:25;;;;;;;7.38;1.92;;;11.50;99.90;;;;;;5038204;28;20041;-71
2022/09/17 11:54:13;;;;;;;6.88;1.65;;;11.70;99.90;;;;;;5030118;28;20059;-70
2022/09/17 11:56:49;;;;;;;4.38;1.33;;;12.00;99.90;;;;;;5042430;28;20036;-72
2022/09/17 11:59:52;;;;;;;3.45;1.17;;;12.10;99.90;;;;;;5044261;28;20553;-71
2022/09/17 12:02:24;;;;;;;6.43;1.52;;;12.30;99.90;;;;;;5014650;28;20052;-72
2022/09/17 12:05:09;;;;;;;6.37;1.93;;;12.30;99.90;;;;;;5043241;28;20106;-70
2022/09/17 12:07:54;;;;;;;6.45;1.60;;;12.20;99.90;;;;;;5039305;28;20045;-72
2022/09/17 12:10:19;;;;;;;5.80;2.17;;;12.00;99.90;;;;;;5041335;28;20086;-72
2022/09/17 12:12:56;;;;;;;8.20;1.90;;;12.00;99.90;;;;;;5040943;28;20112;-69
2022/09/17 12:15:34;;;;;;;6.78;1.85;;;12.00;99.90;;;;;;5045738;28;20033;-72
2022/09/17 12:18:29;;;;;;;11.02;2.03;;;12.20;99.90;;;;;;5023711;28;20037;-72
2022/09/17 12:20:58;;;;;;;6.13;1.48;;;12.40;99.90;;;;;;5042083;28;20578;-72
2022/09/17 12:23:32;;;;;;;8.65;1.67;;;12.70;99.90;;;;;;5028243;28;20040;-70
2022/09/17 12:26:13;;;;;;;8.15;1.83;;;12.90;99.90;;;;;;5023820;28;20072;-73
2022/09/17 12:28:51;;;;;;;5.55;1.65;;;13.10;99.90;;;;;;5024136;28;20080;-74
2022/09/17 12:31:29;;;;;;;8.60;2.00;;;13.30;99.90;;;;;;5045363;28;20107;-73
2022/09/17 12:34:06;;;;;;;8.50;1.65;;;13.40;99.90;;;;;;5026671;28;20071;-73
2022/09/17 12:37:03;;;;;;;5.18;1.50;;;13.50;99.90;;;;;;5021908;28;20107;-73
2022/09/17 12:39:44;;;;;;;8.27;1.70;;;13.60;99.90;;;;;;5039801;28;20048;-71
2022/09/17 12:42:10;;;;;;;7.65;1.70;;;13.50;99.90;;;;;;5037843;28;20055;-74
2022/09/17 12:44:51;;;;;;;7.65;1.60;;;13.50;99.90;;;;;;5038370;28;20045;-75
2022/09/17 12:47:35;;;;;;;4.70;1.40;;;13.50;99.90;;;;;;5040111;28;20190;-72
2022/09/17 12:50:08;;;;;;;5.95;1.50;;;13.60;99.90;;;;;;5045218;28;20049;-72
2022/09/17 12:53:01;;;;;;;8.15;1.60;;;13.70;99.90;;;;;;5041103;28;20047;-74
2022/09/17 12:55:33;;;;;;;;;;;13.70;99.90;;;;;;5025925;28;20041;-72
2022/09/17 12:58:24;;;;;;;10.43;1.70;;;13.90;99.90;;;;;;5041698;28;20378;-73
2022/09/17 13:00:58;;;;;;;8.27;1.90;;;14.00;99.90;;;;;;5041026;28;20482;-72
2022/09/17 13:03:45;;;;;;;6.25;1.90;;;14.20;99.90;;;;;;5043247;28;20037;-72
2022/09/17 13:06:26;;;;;;;6.25;2.10;;;14.20;99.90;;;;;;5042378;28;20071;-73
2022/09/17 13:08:51;;;;;;;10.25;2.05;;;14.30;99.90;;;;;;5022504;28;20040;-72
2022/09/17 13:11:36;;;;;;;8.95;1.90;;;14.50;99.90;;;;;;5022607;28;20495;-71
2022/09/17 13:14:43;;;;;;;9.70;2.67;;;14.50;99.90;;;;;;5040178;28;20036;-72
2022/09/17 13:17:44;;;;;;;10.30;2.13;;;14.40;99.90;;;;;;5024777;28;20045;-72
2022/09/17 13:20:52;;;;;;;10.63;2.03;;;14.20;99.90;;;;;;5029529;28;20049;-73